Time;durP1;ratioP1;P1;durP2;ratioP2;P2;SDS_P1;SDS_P2;PMS_P1;PMS_P2;Temp;Humidity;BMP_temperature;BMP_pressure;BME280_temperature;BME280_humidity;BME280_pressure;Samples;Min_cycle;Max_cycle;Signal;HPM_P1;HPM_P2
2021/07/11 00:00:56;;;;;;;12.32;10.77;;;;;;;;;;5095861;28;20044;-71
2021/07/11 00:03:22;;;;;;;14.98;11.02;;;;;;;;;;5095906;28;20020;-71
2021/07/11 00:05:47;;;;;;;10.20;9.13;;;;;;;;;;5096507;28;20016;-72
2021/07/11 00:08:14;;;;;;;12.65;9.32;;;;;;;;;;5096184;28;20469;-71
2021/07/11 00:10:40;;;;;;;16.13;9.95;;;;;;;;;;5095825;28;20024;-72
2021/07/11 00:13:05;;;;;;;12.60;10.38;;;;;;;;;;5096123;28;20016;-72
2021/07/11 00:15:32;;;;;;;16.15;11.15;;;;;;;;;;5095679;28;20588;-72
2021/07/11 00:17:57;;;;;;;10.52;9.43;;;;;;;;;;5095875;28;20008;-72
2021/07/11 00:20:24;;;;;;;13.90;9.60;;;;;;;;;;5094374;28;20078;-72
2021/07/11 00:22:50;;;;;;;13.95;10.98;;;;;;;;;;5093877;28;20558;-72
2021/07/11 00:25:16;;;;;;;19.50;11.00;;;;;;;;;;5097090;28;20548;-72
2021/07/11 00:27:43;;;;;;;14.27;10.57;;;;;;;;;;5098074;28;20058;-72
2021/07/11 00:30:11;;;;;;;19.20;11.02;;;;;;;;;;5094399;28;20012;-72
2021/07/11 00:32:37;;;;;;;14.55;10.73;;;;;;;;;;5095509;28;20016;-72
2021/07/11 00:35:03;;;;;;;12.88;10.32;;;;;;;;;;5095515;28;20512;-71
2021/07/11 00:37:29;;;;;;;12.63;9.63;;;;;;;;;;5095267;28;20030;-72
2021/07/11 00:39:55;;;;;;;14.55;10.00;;;;;;;;;;5094934;28;20012;-72
2021/07/11 00:42:20;;;;;;;17.95;10.00;;;;;;;;;;5095209;28;20020;-71
2021/07/11 00:44:47;;;;;;;10.65;9.55;;;;;;;;;;5095475;28;20020;-73
2021/07/11 00:47:14;;;;;;;12.63;10.20;;;;;;;;;;5095141;28;20468;-73
2021/07/11 00:49:43;;;;;;;19.80;13.27;;;;;;;;;;5094948;28;20383;-72
2021/07/11 00:52:12;;;;;;;14.55;11.90;;;;;;;;;;5095652;28;20020;-72
2021/07/11 00:54:38;;;;;;;15.00;11.73;;;;;;;;;;5095179;28;20441;-72
2021/07/11 00:57:04;;;;;;;50.70;28.35;;;;;;;;;;5094032;28;20096;-72
2021/07/11 00:59:30;;;;;;;29.05;18.88;;;;;;;;;;5094515;28;20016;-72
2021/07/11 01:02:14;;;;;;;27.80;17.08;;;;;;;;;;5095002;28;20019;-71
2021/07/11 01:04:56;;;;;;;21.65;14.45;;;;;;;;;;5094817;28;20024;-72
2021/07/11 01:07:31;;;;;;;22.58;16.42;;;;;;;;;;5094668;28;20098;-72
2021/07/11 01:10:00;;;;;;;27.02;17.55;;;;;;;;;;5094960;28;20019;-72
2021/07/11 01:12:26;;;;;;;39.50;22.63;;;;;;;;;;5094657;28;20058;-71
2021/07/11 01:14:53;;;;;;;24.48;14.23;;;;;;;;;;5093852;28;20016;-71
2021/07/11 01:17:21;;;;;;;19.27;13.75;;;;;;;;;;5094606;28;20016;-72
2021/07/11 01:19:56;;;;;;;27.20;18.92;;;;;;;;;;5093434;28;20052;-71
2021/07/11 01:22:24;;;;;;;24.50;18.70;;;;;;;;;;5093620;28;20062;-72
2021/07/11 01:24:53;;;;;;;30.25;19.33;;;;;;;;;;5094592;28;20016;-71
2021/07/11 01:27:19;;;;;;;32.70;20.92;;;;;;;;;;5094402;28;20012;-72
2021/07/11 01:29:46;;;;;;;37.42;22.33;;;;;;;;;;5094658;28;20112;-72
2021/07/11 01:32:12;;;;;;;31.98;18.92;;;;;;;;;;5094607;28;20012;-72
2021/07/11 01:34:39;;;;;;;18.05;13.20;;;;;;;;;;5094346;28;20020;-72
2021/07/11 01:37:05;;;;;;;21.42;14.20;;;;;;;;;;5094499;28;20015;-71
2021/07/11 01:39:32;;;;;;;21.20;13.38;;;;;;;;;;5093832;28;20016;-72
2021/07/11 01:41:59;;;;;;;18.08;12.68;;;;;;;;;;5094292;28;20019;-72
2021/07/11 01:44:26;;;;;;;30.67;14.77;;;;;;;;;;5094088;28;20024;-72
2021/07/11 01:46:53;;;;;;;21.55;12.93;;;;;;;;;;5094103;28;20483;-72
2021/07/11 01:49:19;;;;;;;14.82;11.15;;;;;;;;;;5094017;28;20020;-72
2021/07/11 01:51:47;;;;;;;14.05;10.90;;;;;;;;;;5093099;28;20027;-72
2021/07/11 01:54:13;;;;;;;24.10;12.48;;;;;;;;;;5094053;28;20024;-71
2021/07/11 01:56:40;;;;;;;29.25;15.93;;;;;;;;;;5093827;28;20065;-71
2021/07/11 01:59:07;;;;;;;58.22;23.95;;;;;;;;;;5092791;28;20073;-73
2021/07/11 02:01:33;;;;;;;36.92;19.77;;;;;;;;;;5093689;28;20119;-71
2021/07/11 02:03:59;;;;;;;38.55;20.33;;;;;;;;;;5093962;28;20024;-71
2021/07/11 02:06:25;;;;;;;50.22;21.05;;;;;;;;;;5093908;28;20354;-72
2021/07/11 02:08:51;;;;;;;66.32;26.83;;;;;;;;;;5093918;28;20044;-73
2021/07/11 02:11:16;;;;;;;55.63;23.55;;;;;;;;;;5093594;28;20071;-72
2021/07/11 02:13:50;;;;;;;85.50;30.83;;;;;;;;;;5093551;28;20016;-71
2021/07/11 02:16:35;;;;;;;71.32;24.77;;;;;;;;;;5093679;28;20042;-71
2021/07/11 02:19:01;;;;;;;39.33;17.13;;;;;;;;;;5093668;28;20020;-72
2021/07/11 02:21:27;;;;;;;33.35;16.38;;;;;;;;;;5093419;28;20514;-71
2021/07/11 02:23:54;;;;;;;39.20;20.30;;;;;;;;;;5093945;28;20115;-72
2021/07/11 02:26:21;;;;;;;32.58;15.95;;;;;;;;;;5093628;28;20052;-71
2021/07/11 02:28:49;;;;;;;40.60;17.25;;;;;;;;;;5093618;28;20024;-71
2021/07/11 02:31:16;;;;;;;29.98;14.43;;;;;;;;;;5093242;28;20036;-72
2021/07/11 02:33:42;;;;;;;22.50;13.02;;;;;;;;;;5093358;28;20012;-71
2021/07/11 02:36:15;;;;;;;16.70;11.95;;;;;;;;;;5092102;28;20004;-71
2021/07/11 02:38:53;;;;;;;14.82;11.35;;;;;;;;;;5092375;28;20016;-72
2021/07/11 02:41:20;;;;;;;15.68;10.50;;;;;;;;;;5093017;28;20468;-71
2021/07/11 02:43:47;;;;;;;17.70;10.60;;;;;;;;;;5093255;28;20358;-71
2021/07/11 02:46:16;;;;;;;17.42;10.45;;;;;;;;;;5093353;28;20128;-72
2021/07/11 02:48:43;;;;;;;17.35;9.88;;;;;;;;;;5093009;28;20425;-72
2021/07/11 02:51:11;;;;;;;20.48;11.52;;;;;;;;;;5094310;28;20020;-72
2021/07/11 02:53:37;;;;;;;15.35;11.00;;;;;;;;;;5093123;28;20035;-71
2021/07/11 02:56:04;;;;;;;13.80;9.43;;;;;;;;;;5093049;28;20016;-71
2021/07/11 02:58:30;;;;;;;21.27;10.40;;;;;;;;;;5093106;28;20448;-72
2021/07/11 03:00:56;;;;;;;20.48;13.63;;;;;;;;;;5092835;28;20044;-72
2021/07/11 03:03:21;;;;;;;29.67;14.23;;;;;;;;;;5092440;28;20373;-72
2021/07/11 03:05:47;;;;;;;28.13;13.80;;;;;;;;;;5093428;28;20474;-72
2021/07/11 03:08:13;;;;;;;26.10;13.07;;;;;;;;;;5093257;28;20065;-72
2021/07/11 03:10:40;;;;;;;28.85;13.95;;;;;;;;;;5092871;28;20050;-72
2021/07/11 03:13:07;;;;;;;32.08;16.85;;;;;;;;;;5093003;28;20038;-72
2021/07/11 03:15:32;;;;;;;53.83;21.33;;;;;;;;;;5091626;28;20403;-72
2021/07/11 03:17:59;;;;;;;19.30;12.13;;;;;;;;;;5092803;28;20012;-72
2021/07/11 03:20:26;;;;;;;20.98;10.52;;;;;;;;;;5092716;28;20027;-71
2021/07/11 03:22:54;;;;;;;17.98;11.45;;;;;;;;;;5092997;28;20024;-72
2021/07/11 03:25:20;;;;;;;24.98;12.98;;;;;;;;;;5092555;28;20024;-71
2021/07/11 03:27:47;;;;;;;45.90;16.63;;;;;;;;;;5092782;28;20015;-71
2021/07/11 03:30:13;;;;;;;45.92;18.48;;;;;;;;;;5092757;28;20016;-71
2021/07/11 03:32:42;;;;;;;59.58;21.13;;;;;;;;;;5092465;28;20507;-72
2021/07/11 03:35:08;;;;;;;46.13;17.38;;;;;;;;;;5092592;28;20099;-71
2021/07/11 03:37:36;;;;;;;43.10;18.75;;;;;;;;;;5092906;28;20108;-72
2021/07/11 03:40:03;;;;;;;38.38;14.95;;;;;;;;;;5092816;28;20018;-71
2021/07/11 03:42:33;;;;;;;30.17;12.15;;;;;;;;;;5092621;28;20131;-72
2021/07/11 03:44:59;;;;;;;19.52;10.90;;;;;;;;;;5092636;28;20012;-71
2021/07/11 03:47:26;;;;;;;16.98;9.98;;;;;;;;;;5092332;28;20461;-71
2021/07/11 03:49:54;;;;;;;13.02;9.38;;;;;;;;;;5092859;28;20066;-71
2021/07/11 03:52:25;;;;;;;13.10;9.43;;;;;;;;;;5092726;28;20354;-71
2021/07/11 03:54:52;;;;;;;12.32;9.10;;;;;;;;;;5092623;28;20016;-70
2021/07/11 03:57:18;;;;;;;12.60;8.85;;;;;;;;;;5092420;28;20015;-71
2021/07/11 03:59:45;;;;;;;11.85;8.45;;;;;;;;;;5092075;28;20044;-71
2021/07/11 04:02:10;;;;;;;15.15;8.68;;;;;;;;;;5092650;28;20027;-71
2021/07/11 04:04:37;;;;;;;18.25;7.85;;;;;;;;;;5092479;28;20020;-71
2021/07/11 04:07:04;;;;;;;12.00;8.15;;;;;;;;;;5092505;28;20106;-71
2021/07/11 04:09:30;;;;;;;14.70;7.68;;;;;;;;;;5092035;28;20012;-71
2021/07/11 04:11:57;;;;;;;13.00;6.80;;;;;;;;;;5092251;28;20028;-71
2021/07/11 04:14:23;;;;;;;10.38;6.35;;;;;;;;;;5093670;28;20039;-71
2021/07/11 04:16:53;;;;;;;10.75;6.55;;;;;;;;;;5096058;28;20476;-71
2021/07/11 04:19:23;;;;;;;9.82;5.90;;;;;;;;;;5095636;28;20020;-71
2021/07/11 04:21:50;;;;;;;12.07;6.68;;;;;;;;;;5095754;28;20102;-71
2021/07/11 04:24:17;;;;;;;16.02;6.32;;;;;;;;;;5095931;28;20057;-71
2021/07/11 04:26:43;;;;;;;10.00;6.18;;;;;;;;;;5095655;28;20103;-70
2021/07/11 04:29:09;;;;;;;9.30;5.65;;;;;;;;;;5095349;28;20015;-71
2021/07/11 04:31:35;;;;;;;9.05;6.22;;;;;;;;;;5095956;28;20024;-71
2021/07/11 04:34:22;;;;;;;11.63;5.57;;;;;;;;;;5095620;28;20522;-70
2021/07/11 04:36:48;;;;;;;8.18;5.47;;;;;;;;;;5095499;28;20104;-71
2021/07/11 04:39:14;;;;;;;7.97;5.20;;;;;;;;;;5093756;28;20103;-71
2021/07/11 04:41:42;;;;;;;8.63;5.18;;;;;;;;;;5095298;28;20024;-71
2021/07/11 04:44:08;;;;;;;8.52;4.90;;;;;;;;;;5095590;28;20016;-71
2021/07/11 04:46:34;;;;;;;8.48;5.13;;;;;;;;;;5095263;28;20020;-71
2021/07/11 04:49:00;;;;;;;7.43;4.47;;;;;;;;;;5095376;28;20027;-71
2021/07/11 04:51:26;;;;;;;6.05;4.55;;;;;;;;;;5094891;28;20016;-71
2021/07/11 04:53:52;;;;;;;5.88;4.18;;;;;;;;;;5095288;28;20040;-70
2021/07/11 04:56:18;;;;;;;6.35;4.10;;;;;;;;;;5095050;28;20770;-71
2021/07/11 04:58:44;;;;;;;9.77;4.25;;;;;;;;;;5095211;28;20022;-71
2021/07/11 05:01:10;;;;;;;5.72;4.25;;;;;;;;;;5094734;28;20075;-71
2021/07/11 05:03:37;;;;;;;6.80;4.18;;;;;;;;;;5095038;28;20047;-71
2021/07/11 05:06:03;;;;;;;7.57;4.47;;;;;;;;;;5095244;28;20023;-70
2021/07/11 05:08:28;;;;;;;7.40;3.45;;;;;;;;;;5094883;28;20028;-71
2021/07/11 05:10:54;;;;;;;6.05;3.80;;;;;;;;;;5094552;28;20081;-71
2021/07/11 05:13:19;;;;;;;13.27;4.68;;;;;;;;;;5095423;28;20373;-71
2021/07/11 05:15:45;;;;;;;8.02;4.30;;;;;;;;;;5097380;28;20024;-71
2021/07/11 05:18:12;;;;;;;6.50;4.57;;;;;;;;;;5095109;28;20054;-71
2021/07/11 05:20:37;;;;;;;10.93;5.68;;;;;;;;;;5094617;28;20023;-71
2021/07/11 05:23:03;;;;;;;10.77;4.50;;;;;;;;;;5094880;28;20016;-71
2021/07/11 05:25:32;;;;;;;7.60;4.07;;;;;;;;;;5094006;28;20018;-70
2021/07/11 05:27:59;;;;;;;8.63;4.10;;;;;;;;;;5094762;28;20020;-71
2021/07/11 05:30:25;;;;;;;8.88;3.78;;;;;;;;;;5094414;28;20024;-71
2021/07/11 05:32:50;;;;;;;12.45;5.05;;;;;;;;;;5094443;28;20030;-71
2021/07/11 05:35:16;;;;;;;12.38;3.88;;;;;;;;;;5094235;28;20024;-71
2021/07/11 05:37:42;;;;;;;8.27;3.90;;;;;;;;;;5094161;28;20065;-71
2021/07/11 05:40:09;;;;;;;15.27;4.82;;;;;;;;;;5094232;28;20024;-71
2021/07/11 05:42:35;;;;;;;13.10;4.93;;;;;;;;;;5094361;28;20380;-71
2021/07/11 05:45:01;;;;;;;16.33;5.13;;;;;;;;;;5094426;28;20505;-71
2021/07/11 05:47:27;;;;;;;14.05;5.75;;;;;;;;;;5093954;28;20169;-71
2021/07/11 05:49:53;;;;;;;18.52;6.35;;;;;;;;;;5093907;28;20012;-71
2021/07/11 05:52:20;;;;;;;22.23;6.88;;;;;;;;;;5092975;28;20024;-71
2021/07/11 05:54:45;;;;;;;14.70;5.55;;;;;;;;;;5093830;28;20009;-71
2021/07/11 05:57:11;;;;;;;19.80;5.70;;;;;;;;;;5093848;28;20106;-70
2021/07/11 05:59:37;;;;;;;21.10;7.45;;;;;;;;;;5093794;28;20059;-71
2021/07/11 06:02:03;;;;;;;20.58;6.43;;;;;;;;;;5094100;28;20020;-71
2021/07/11 06:04:30;;;;;;;14.73;6.03;;;;;;;;;;5094013;28;20018;-70
2021/07/11 06:06:55;;;;;;;16.27;6.25;;;;;;;;;;5093915;28;20073;-71
2021/07/11 06:09:21;;;;;;;12.23;5.03;;;;;;;;;;5093391;28;20020;-71
2021/07/11 06:11:46;;;;;;;7.25;4.53;;;;;;;;;;5093502;28;20096;-71
2021/07/11 06:14:14;;;;;;;5.95;3.75;;;;;;;;;;5093575;28;20030;-71
2021/07/11 06:16:39;;;;;;;5.05;3.80;;;;;;;;;;5093704;28;20074;-71
2021/07/11 06:19:05;;;;;;;7.43;4.13;;;;;;;;;;5092449;28;20027;-71
2021/07/11 06:21:31;;;;;;;6.10;3.88;;;;;;;;;;5093232;28;20016;-71
2021/07/11 06:23:57;;;;;;;8.15;3.67;;;;;;;;;;5093492;28;20103;-71
2021/07/11 06:26:22;;;;;;;6.00;3.90;;;;;;;;;;5093688;28;20111;-71
2021/07/11 06:28:47;;;;;;;9.18;3.55;;;;;;;;;;5093385;28;20730;-71
2021/07/11 06:31:13;;;;;;;4.00;3.60;;;;;;;;;;5093200;28;20036;-71
2021/07/11 06:33:38;;;;;;;6.53;3.42;;;;;;;;;;5093259;28;20012;-71
2021/07/11 06:36:05;;;;;;;5.45;3.45;;;;;;;;;;5093228;28;20028;-71
2021/07/11 06:38:31;;;;;;;3.88;3.38;;;;;;;;;;5092842;28;20020;-70
2021/07/11 06:40:56;;;;;;;6.05;3.38;;;;;;;;;;5093296;28;20030;-71
2021/07/11 06:43:22;;;;;;;11.25;3.83;;;;;;;;;;5093077;28;20390;-71
2021/07/11 06:45:48;;;;;;;3.75;3.00;;;;;;;;;;5093350;28;20027;-71
2021/07/11 06:48:15;;;;;;;8.95;3.20;;;;;;;;;;5093503;28;20069;-71
2021/07/11 06:50:43;;;;;;;6.00;3.50;;;;;;;;;;5092939;28;20093;-71
2021/07/11 06:53:09;;;;;;;5.85;2.90;;;;;;;;;;5092858;28;20024;-71
2021/07/11 06:55:34;;;;;;;9.80;4.70;;;;;;;;;;5092961;28;20103;-71
2021/07/11 06:58:01;;;;;;;9.70;4.20;;;;;;;;;;5093163;28;20024;-71
2021/07/11 07:00:27;;;;;;;8.63;4.15;;;;;;;;;;5093404;28;20044;-71
2021/07/11 07:02:53;;;;;;;4.32;3.03;;;;;;;;;;5094161;28;20023;-72
2021/07/11 07:05:21;;;;;;;3.72;3.00;;;;;;;;;;5093501;28;20022;-71
2021/07/11 07:07:47;;;;;;;7.50;2.90;;;;;;;;;;5092923;28;20032;-71
2021/07/11 07:10:14;;;;;;;3.42;2.60;;;;;;;;;;5092820;28;20016;-71
2021/07/11 07:12:40;;;;;;;4.65;2.50;;;;;;;;;;5091663;28;20024;-71
2021/07/11 07:15:07;;;;;;;4.50;2.60;;;;;;;;;;5093013;28;20031;-72
2021/07/11 07:17:33;;;;;;;5.97;2.58;;;;;;;;;;5092955;28;20354;-71
2021/07/11 07:19:59;;;;;;;3.83;2.50;;;;;;;;;;5092849;28;20024;-71
2021/07/11 07:22:24;;;;;;;4.40;2.53;;;;;;;;;;5092829;28;20487;-71
2021/07/11 07:24:50;;;;;;;3.15;2.40;;;;;;;;;;5092724;28;20015;-72
2021/07/11 07:27:15;;;;;;;5.65;2.60;;;;;;;;;;5092639;28;20024;-71
2021/07/11 07:29:41;;;;;;;4.38;2.90;;;;;;;;;;5092719;28;20066;-71
2021/07/11 07:32:07;;;;;;;9.57;3.15;;;;;;;;;;5092924;28;20036;-71
2021/07/11 07:34:33;;;;;;;5.70;2.88;;;;;;;;;;5092774;28;20114;-72
2021/07/11 07:36:59;;;;;;;6.75;3.63;;;;;;;;;;5093558;28;20099;-70
2021/07/11 07:39:26;;;;;;;6.13;3.05;;;;;;;;;;5097288;28;20042;-71
2021/07/11 07:41:52;;;;;;;5.05;3.22;;;;;;;;;;5092489;28;20017;-72
2021/07/11 07:44:17;;;;;;;3.05;2.75;;;;;;;;;;5092937;28;20095;-72
2021/07/11 07:46:43;;;;;;;5.40;2.70;;;;;;;;;;5092689;28;20393;-72
2021/07/11 07:49:09;;;;;;;3.13;2.83;;;;;;;;;;5093511;28;20103;-72
2021/07/11 07:51:35;;;;;;;4.13;2.97;;;;;;;;;;5096291;28;20016;-72
2021/07/11 07:54:00;;;;;;;3.63;2.83;;;;;;;;;;5096312;28;20020;-71
2021/07/11 07:56:27;;;;;;;6.97;3.10;;;;;;;;;;5096608;28;20024;-72
2021/07/11 07:58:53;;;;;;;5.45;2.75;;;;;;;;;;5096450;28;20020;-71
2021/07/11 08:01:19;;;;;;;3.92;2.75;;;;;;;;;;5095929;28;20044;-71
2021/07/11 08:03:45;;;;;;;5.75;2.95;;;;;;;;;;5096049;28;20019;-72
2021/07/11 08:06:10;;;;;;;4.07;2.80;;;;;;;;;;5096267;28;20020;-72
2021/07/11 08:08:37;;;;;;;6.35;3.20;;;;;;;;;;5095880;28;20016;-72
2021/07/11 08:11:03;;;;;;;6.68;2.85;;;;;;;;;;5096135;28;20118;-71
2021/07/11 08:13:28;;;;;;;7.95;2.75;;;;;;;;;;5095862;28;20034;-71
2021/07/11 08:15:54;;;;;;;7.68;3.55;;;;;;;;;;5096031;28;20536;-72
2021/07/11 08:18:20;;;;;;;7.47;3.42;;;;;;;;;;5095933;28;20353;-72
2021/07/11 08:20:46;;;;;;;3.10;2.72;;;;;;;;;;5094491;28;20016;-71
2021/07/11 08:23:12;;;;;;;4.10;2.60;;;;;;;;;;5095551;28;20020;-72
2021/07/11 08:25:37;;;;;;;6.35;2.97;;;;;;;;;;5095837;28;20091;-72
2021/07/11 08:28:03;;;;;;;3.60;2.90;;;;;;;;;;5096101;28;20491;-72
2021/07/11 08:30:28;;;;;;;3.70;2.83;;;;;;;;;;5095835;28;20103;-72
2021/07/11 08:32:54;;;;;;;6.63;3.38;;;;;;;;;;5095652;28;20020;-72
2021/07/11 08:35:20;;;;;;;3.80;2.83;;;;;;;;;;5095452;28;20023;-72
2021/07/11 08:37:46;;;;;;;7.30;3.10;;;;;;;;;;5095369;28;20004;-72
2021/07/11 08:40:12;;;;;;;5.32;3.35;;;;;;;;;;5095688;28;20024;-72
2021/07/11 08:42:42;;;;;;;16.75;3.33;;;;;;;;;;5095415;28;20016;-71
2021/07/11 08:45:10;;;;;;;5.15;2.78;;;;;;;;;;5095328;28;20031;-72
2021/07/11 08:47:36;;;;;;;9.70;3.92;;;;;;;;;;5095343;28;20052;-72
2021/07/11 08:50:03;;;;;;;4.55;3.30;;;;;;;;;;5095383;28;20083;-71
2021/07/11 08:52:30;;;;;;;8.23;4.25;;;;;;;;;;5095228;28;20044;-72
2021/07/11 08:54:55;;;;;;;4.80;3.38;;;;;;;;;;5095223;28;20031;-72
2021/07/11 08:57:20;;;;;;;6.03;3.35;;;;;;;;;;5095181;28;20028;-71
2021/07/11 08:59:46;;;;;;;4.95;3.40;;;;;;;;;;5094529;28;20455;-72
2021/07/11 09:02:13;;;;;;;5.65;3.58;;;;;;;;;;5095022;28;20461;-72
2021/07/11 09:04:45;;;;;;;5.30;2.90;;;;;;;;;;5094912;28;20073;-72
2021/07/11 09:07:16;;;;;;;7.40;3.30;;;;;;;;;;5094656;28;20115;-73
2021/07/11 09:09:42;;;;;;;9.90;3.90;;;;;;;;;;5095001;28;20563;-73
2021/07/11 09:12:09;;;;;;;4.63;3.33;;;;;;;;;;5094977;28;20032;-71
2021/07/11 09:14:43;;;;;;;5.63;3.28;;;;;;;;;;5094668;28;20039;-72
2021/07/11 09:17:10;;;;;;;22.85;3.80;;;;;;;;;;5094599;28;20012;-72
2021/07/11 09:19:38;;;;;;;4.47;3.35;;;;;;;;;;5094739;28;20024;-72
2021/07/11 09:22:15;;;;;;;5.20;3.47;;;;;;;;;;5094750;28;20023;-72
2021/07/11 09:24:48;;;;;;;5.13;3.13;;;;;;;;;;5094676;28;20062;-72
2021/07/11 09:27:16;;;;;;;16.48;4.05;;;;;;;;;;5094460;28;20035;-72
2021/07/11 09:29:42;;;;;;;4.72;2.90;;;;;;;;;;5094414;28;20020;-72
2021/07/11 09:32:09;;;;;;;7.40;3.00;;;;;;;;;;5094199;28;20089;-73
2021/07/11 09:34:38;;;;;;;3.42;3.13;;;;;;;;;;5094599;28;20404;-72
2021/07/11 09:37:13;;;;;;;4.03;3.05;;;;;;;;;;5094460;28;20468;-71
2021/07/11 09:39:46;;;;;;;3.50;2.92;;;;;;;;;;5094389;28;20024;-72
2021/07/11 09:42:23;;;;;;;7.70;3.25;;;;;;;;;;5094468;28;20065;-73
2021/07/11 09:44:49;;;;;;;5.40;3.00;;;;;;;;;;5094332;28;20020;-73
2021/07/11 09:47:15;;;;;;;5.63;3.05;;;;;;;;;;5094030;28;20456;-72
2021/07/11 09:49:42;;;;;;;4.45;2.50;;;;;;;;;;5094303;28;20081;-72
2021/07/11 09:52:08;;;;;;;7.60;3.20;;;;;;;;;;5094152;28;20036;-71
2021/07/11 09:54:35;;;;;;;5.60;3.03;;;;;;;;;;5093940;28;20074;-72
2021/07/11 09:57:06;;;;;;;5.28;2.60;;;;;;;;;;5094150;28;20469;-71
2021/07/11 09:59:32;;;;;;;4.75;2.70;;;;;;;;;;5093808;28;20024;-73
2021/07/11 10:01:57;;;;;;;6.15;2.80;;;;;;;;;;5102379;28;20012;-72
2021/07/11 10:04:24;;;;;;;6.25;2.80;;;;;;;;;;5094485;28;20126;-71
2021/07/11 10:06:51;;;;;;;8.52;3.22;;;;;;;;;;5093709;28;20027;-73
2021/07/11 10:09:16;;;;;;;4.95;3.15;;;;;;;;;;5093766;28;20050;-73
2021/07/11 10:11:42;;;;;;;9.25;2.95;;;;;;;;;;5092861;28;20047;-72
2021/07/11 10:14:08;;;;;;;4.47;3.05;;;;;;;;;;5093725;28;20023;-72
2021/07/11 10:16:36;;;;;;;3.53;2.45;;;;;;;;;;5093888;28;20020;-71
2021/07/11 10:19:07;;;;;;;6.43;2.95;;;;;;;;;;5093776;28;20110;-73
2021/07/11 10:21:36;;;;;;;8.70;3.08;;;;;;;;;;5093669;28;20406;-72
2021/07/11 10:24:01;;;;;;;4.63;3.13;;;;;;;;;;5093592;28;20012;-72
2021/07/11 10:26:37;;;;;;;3.67;2.65;;;;;;;;;;5093498;28;20027;-73
2021/07/11 10:29:10;;;;;;;4.95;2.75;;;;;;;;;;5093510;28;20023;-72
2021/07/11 10:31:40;;;;;;;4.93;2.53;;;;;;;;;;5093442;28;20031;-72
2021/07/11 10:34:06;;;;;;;3.97;2.80;;;;;;;;;;5093483;28;20099;-73
2021/07/11 10:36:34;;;;;;;6.85;2.83;;;;;;;;;;5093529;28;20020;-73
2021/07/11 10:38:59;;;;;;;7.05;2.90;;;;;;;;;;5093186;28;20016;-71
2021/07/11 10:41:29;;;;;;;4.30;3.20;;;;;;;;;;5093171;28;20383;-72
2021/07/11 10:44:06;;;;;;;3.70;2.85;;;;;;;;;;5093617;28;20047;-72
2021/07/11 10:46:34;;;;;;;3.78;2.90;;;;;;;;;;5093412;28;20019;-72
2021/07/11 10:49:11;;;;;;;4.47;3.05;;;;;;;;;;5093241;28;20016;-71
2021/07/11 10:51:41;;;;;;;7.18;3.15;;;;;;;;;;5092894;28;20031;-72
2021/07/11 10:54:17;;;;;;;4.80;3.33;;;;;;;;;;5093566;28;20432;-72
2021/07/11 10:56:43;;;;;;;6.10;3.22;;;;;;;;;;5092903;28;20046;-72
2021/07/11 10:59:09;;;;;;;7.05;2.92;;;;;;;;;;5091846;28;20357;-71
2021/07/11 11:01:36;;;;;;;4.18;2.72;;;;;;;;;;5092870;28;20535;-71
2021/07/11 11:04:03;;;;;;;5.20;3.33;;;;;;;;;;5093035;28;20476;-71
2021/07/11 11:06:42;;;;;;;3.80;2.85;;;;;;;;;;5093255;28;20031;-72
2021/07/11 11:09:08;;;;;;;9.05;3.40;;;;;;;;;;5092686;28;20065;-71
2021/07/11 11:11:34;;;;;;;4.25;3.08;;;;;;;;;;5093080;28;20081;-72
2021/07/11 11:14:03;;;;;;;4.03;3.10;;;;;;;;;;5093457;28;20016;-71
2021/07/11 11:16:39;;;;;;;7.10;3.10;;;;;;;;;;5093210;28;20047;-71
2021/07/11 11:19:12;;;;;;;4.13;3.40;;;;;;;;;;5093173;28;20016;-71
2021/07/11 11:21:37;;;;;;;6.68;3.15;;;;;;;;;;5092748;28;20034;-72
2021/07/11 11:24:03;;;;;;;4.57;3.22;;;;;;;;;;5095859;28;20099;-72
2021/07/11 11:26:29;;;;;;;11.52;3.30;;;;;;;;;;5097208;28;20028;-72
2021/07/11 11:28:56;;;;;;;5.88;2.92;;;;;;;;;;5096834;28;20027;-72
2021/07/11 11:31:23;;;;;;;6.03;3.42;;;;;;;;;;5096471;28;20106;-72
2021/07/11 11:34:01;;;;;;;4.03;3.05;;;;;;;;;;5096907;28;20018;-73
2021/07/11 11:36:28;;;;;;;4.20;3.05;;;;;;;;;;5094673;28;20023;-73
2021/07/11 11:38:56;;;;;;;6.65;3.15;;;;;;;;;;5096429;28;20027;-72
2021/07/11 11:41:23;;;;;;;5.03;3.50;;;;;;;;;;5096497;28;20016;-72
2021/07/11 11:43:49;;;;;;;13.65;3.90;;;;;;;;;;5096523;28;20099;-72
2021/07/11 11:46:29;;;;;;;8.48;3.40;;;;;;;;;;5096527;28;20012;-71
2021/07/11 11:48:55;;;;;;;;;;;;;;;;;;5097188;28;20035;-72
2021/07/11 11:51:20;;;;;;;4.57;3.22;;;;;;;;;;5096221;28;19911;-72
2021/07/11 11:53:47;;;;;;;12.88;3.53;;;;;;;;;;5096455;28;20015;-72
2021/07/11 11:56:13;;;;;;;3.80;3.25;;;;;;;;;;5096502;28;20019;-73
2021/07/11 11:58:40;;;;;;;7.47;2.70;;;;;;;;;;5096131;28;20063;-72
2021/07/11 12:01:08;;;;;;;4.13;2.78;;;;;;;;;;5096099;28;20516;-74
2021/07/11 12:03:37;;;;;;;8.23;2.90;;;;;;;;;;5096324;28;20017;-72
2021/07/11 12:06:04;;;;;;;3.60;3.10;;;;;;;;;;5096373;28;20019;-71
2021/07/11 12:08:32;;;;;;;4.57;3.28;;;;;;;;;;5096227;28;20077;-72
2021/07/11 12:10:59;;;;;;;5.93;3.30;;;;;;;;;;5094511;28;20107;-71
2021/07/11 12:13:25;;;;;;;5.80;3.97;;;;;;;;;;5095931;28;20050;-70
2021/07/11 12:16:11;;;;;;;5.03;3.25;;;;;;;;;;5096515;28;20470;-70
2021/07/11 12:18:41;;;;;;;4.13;3.10;;;;;;;;;;5096099;28;20016;-71
2021/07/11 12:21:07;;;;;;;6.57;3.20;;;;;;;;;;5094714;28;20422;-71
2021/07/11 12:23:34;;;;;;;12.00;3.45;;;;;;;;;;5095643;28;20016;-71
2021/07/11 12:26:01;;;;;;;6.68;3.20;;;;;;;;;;5099591;28;20008;-70
2021/07/11 12:28:28;;;;;;;6.05;3.53;;;;;;;;;;5099307;28;20020;-71
2021/07/11 12:30:56;;;;;;;7.15;3.38;;;;;;;;;;5095445;28;20045;-72
2021/07/11 12:33:29;;;;;;;4.20;3.22;;;;;;;;;;5095499;28;20385;-71
2021/07/11 12:35:58;;;;;;;5.72;3.00;;;;;;;;;;5094719;28;20113;-70
2021/07/11 12:38:35;;;;;;;4.03;2.92;;;;;;;;;;5095641;28;20016;-71
2021/07/11 12:41:04;;;;;;;3.30;3.00;;;;;;;;;;5094400;28;20052;-71
2021/07/11 12:43:32;;;;;;;8.30;3.10;;;;;;;;;;5095280;28;20533;-71
2021/07/11 12:46:02;;;;;;;6.00;3.95;;;;;;;;;;5095352;28;20031;-71
2021/07/11 12:48:41;;;;;;;9.00;3.20;;;;;;;;;;5093317;28;20504;-71
2021/07/11 12:51:25;;;;;;;6.07;3.00;;;;;;;;;;5094963;28;20035;-71
2021/07/11 12:53:52;;;;;;;4.40;2.75;;;;;;;;;;5095340;28;20016;-73
2021/07/11 12:56:19;;;;;;;6.22;3.35;;;;;;;;;;5094046;28;20138;-70
2021/07/11 12:58:45;;;;;;;6.15;3.13;;;;;;;;;;5095216;28;20020;-72
2021/07/11 13:01:11;;;;;;;5.38;3.13;;;;;;;;;;5094663;28;20116;-72
2021/07/11 13:03:38;;;;;;;8.48;3.20;;;;;;;;;;5095243;28;20028;-72
2021/07/11 13:06:04;;;;;;;9.57;3.17;;;;;;;;;;5095070;28;20473;-72
2021/07/11 13:08:29;;;;;;;4.30;2.90;;;;;;;;;;5094829;28;20487;-71
2021/07/11 13:10:55;;;;;;;12.23;3.53;;;;;;;;;;5094626;28;20016;-71
2021/07/11 13:13:21;;;;;;;6.35;3.40;;;;;;;;;;5094756;28;20388;-73
2021/07/11 13:15:47;;;;;;;6.15;3.20;;;;;;;;;;5094760;28;20008;-72
2021/07/11 13:18:14;;;;;;;5.20;3.80;;;;;;;;;;5094990;28;20032;-73
2021/07/11 13:20:43;;;;;;;9.18;3.30;;;;;;;;;;5094534;28;20039;-72
2021/07/11 13:23:08;;;;;;;11.65;3.88;;;;;;;;;;5094578;28;20034;-71
2021/07/11 13:25:34;;;;;;;6.07;4.10;;;;;;;;;;5093370;28;20120;-71
2021/07/11 13:28:00;;;;;;;5.65;3.22;;;;;;;;;;5094576;28;20023;-72
2021/07/11 13:30:29;;;;;;;4.15;3.50;;;;;;;;;;5094314;28;20388;-71
2021/07/11 13:32:56;;;;;;;6.63;3.15;;;;;;;;;;5094561;28;20016;-72
2021/07/11 13:35:24;;;;;;;9.55;3.80;;;;;;;;;;5094609;28;20031;-70
2021/07/11 13:37:50;;;;;;;6.20;3.50;;;;;;;;;;5094482;28;20105;-71
2021/07/11 13:40:17;;;;;;;4.22;3.28;;;;;;;;;;5094414;28;20020;-71
2021/07/11 13:42:43;;;;;;;7.68;3.50;;;;;;;;;;5094082;28;20360;-72
2021/07/11 13:45:10;;;;;;;4.35;2.97;;;;;;;;;;5093918;28;20109;-72
2021/07/11 13:47:36;;;;;;;8.65;3.42;;;;;;;;;;5094785;28;20020;-71
2021/07/11 13:50:04;;;;;;;12.32;3.50;;;;;;;;;;5094223;28;20016;-71
2021/07/11 13:52:30;;;;;;;5.93;2.78;;;;;;;;;;5094092;28;20019;-72
2021/07/11 13:54:57;;;;;;;4.25;3.28;;;;;;;;;;5094087;28;20023;-72
2021/07/11 13:57:23;;;;;;;8.98;4.07;;;;;;;;;;5093887;28;20024;-72
2021/07/11 13:59:49;;;;;;;5.25;3.10;;;;;;;;;;5093611;28;20051;-73
2021/07/11 14:02:15;;;;;;;9.73;3.03;;;;;;;;;;5094408;28;20073;-72
2021/07/11 14:04:41;;;;;;;4.57;2.78;;;;;;;;;;5093831;28;20055;-72
2021/07/11 14:07:08;;;;;;;3.50;3.03;;;;;;;;;;5093819;28;20376;-72
2021/07/11 14:09:33;;;;;;;6.57;3.03;;;;;;;;;;5094091;28;20487;-72
2021/07/11 14:11:59;;;;;;;3.75;2.60;;;;;;;;;;5093819;28;20024;-72
2021/07/11 14:14:25;;;;;;;5.68;2.78;;;;;;;;;;5093580;28;20020;-71
2021/07/11 14:16:51;;;;;;;7.57;3.05;;;;;;;;;;5093777;28;20021;-72
2021/07/11 14:19:17;;;;;;;8.02;3.70;;;;;;;;;;5093390;28;20016;-73
2021/07/11 14:21:42;;;;;;;3.88;3.17;;;;;;;;;;5093766;28;20023;-72
2021/07/11 14:24:08;;;;;;;7.97;3.20;;;;;;;;;;5093613;28;20578;-72
2021/07/11 14:26:35;;;;;;;6.10;3.10;;;;;;;;;;5093677;28;20380;-71
2021/07/11 14:29:03;;;;;;;4.60;2.80;;;;;;;;;;5093341;28;20012;-72
2021/07/11 14:31:28;;;;;;;3.30;3.00;;;;;;;;;;5093278;28;20028;-72
2021/07/11 14:33:54;;;;;;;6.82;3.45;;;;;;;;;;5093458;28;20410;-73
2021/07/11 14:36:20;;;;;;;9.13;3.30;;;;;;;;;;5093614;28;20016;-72